sensor_id;sensor_type;location;lat;lon;timestamp;pressure;altitude;pressure_sealevel;temperature;humidity
7888;BME280;3989;48.810;9.208;2022-08-19T00:01:59;98320.88;;;21.52;100.00
7888;BME280;3989;48.810;9.208;2022-08-19T00:04:28;98319.47;;;21.49;100.00
7888;BME280;3989;48.810;9.208;2022-08-19T00:06:55;98308.59;;;21.44;100.00
7888;BME280;3989;48.810;9.208;2022-08-19T00:09:23;98292.25;;;21.39;100.00
7888;BME280;3989;48.810;9.208;2022-08-19T00:11:54;98307.78;;;21.43;100.00
7888;BME280;3989;48.810;9.208;2022-08-19T00:14:22;98316.19;;;21.42;100.00
7888;BME280;3989;48.810;9.208;2022-08-19T00:16:49;98319.13;;;21.35;100.00
7888;BME280;3989;48.810;9.208;2022-08-19T00:22:00;98320.22;;;21.39;100.00
7888;BME280;3989;48.810;9.208;2022-08-19T00:24:27;98270.63;;;21.12;100.00
7888;BME280;3989;48.810;9.208;2022-08-19T00:26:56;98230.09;;;20.74;100.00
7888;BME280;3989;48.810;9.208;2022-08-19T00:29:24;98115.25;;;20.00;100.00
7888;BME280;3989;48.810;9.208;2022-08-19T00:31:51;98288.78;;;21.12;100.00
7888;BME280;3989;48.810;9.208;2022-08-19T00:34:21;98319.66;;;21.32;100.00
7888;BME280;3989;48.810;9.208;2022-08-19T00:36:48;98223.44;;;20.86;100.00
7888;BME280;3989;48.810;9.208;2022-08-19T00:39:16;98254.53;;;21.06;100.00
7888;BME280;3989;48.810;9.208;2022-08-19T00:41:44;98261.13;;;21.15;100.00
7888;BME280;3989;48.810;9.208;2022-08-19T00:44:17;98216.13;;;20.87;100.00
7888;BME280;3989;48.810;9.208;2022-08-19T00:46:47;98284.31;;;21.27;100.00
7888;BME280;3989;48.810;9.208;2022-08-19T00:49:16;98093.28;;;19.96;100.00
7888;BME280;3989;48.810;9.208;2022-08-19T00:51:47;98298.94;;;21.26;100.00
7888;BME280;3989;48.810;9.208;2022-08-19T00:54:16;98118.53;;;20.02;100.00
7888;BME280;3989;48.810;9.208;2022-08-19T00:56:43;98284.44;;;21.11;100.00
7888;BME280;3989;48.810;9.208;2022-08-19T00:59:12;98253.63;;;20.95;100.00
7888;BME280;3989;48.810;9.208;2022-08-19T01:01:42;98287.22;;;21.16;100.00
7888;BME280;3989;48.810;9.208;2022-08-19T01:04:10;98308.44;;;21.24;100.00
7888;BME280;3989;48.810;9.208;2022-08-19T01:06:38;98313.59;;;21.25;100.00
7888;BME280;3989;48.810;9.208;2022-08-19T01:09:06;98315.19;;;21.21;100.00
7888;BME280;3989;48.810;9.208;2022-08-19T01:11:36;98316.03;;;21.27;100.00
7888;BME280;3989;48.810;9.208;2022-08-19T01:14:05;98309.00;;;21.26;100.00
7888;BME280;3989;48.810;9.208;2022-08-19T01:16:33;98267.81;;;21.07;100.00
7888;BME280;3989;48.810;9.208;2022-08-19T01:19:04;98293.50;;;21.26;100.00
7888;BME280;3989;48.810;9.208;2022-08-19T01:21:41;98295.38;;;21.21;100.00
7888;BME280;3989;48.810;9.208;2022-08-19T01:24:09;98266.44;;;21.05;100.00
7888;BME280;3989;48.810;9.208;2022-08-19T01:26:38;98307.59;;;21.23;100.00
7888;BME280;3989;48.810;9.208;2022-08-19T01:29:07;98298.91;;;21.21;100.00
7888;BME280;3989;48.810;9.208;2022-08-19T01:31:35;98128.41;;;20.13;100.00
7888;BME280;3989;48.810;9.208;2022-08-19T01:34:03;98200.59;;;20.51;100.00
7888;BME280;3989;48.810;9.208;2022-08-19T01:36:32;98165.72;;;20.32;100.00
7888;BME280;3989;48.810;9.208;2022-08-19T01:38:59;98276.47;;;21.04;100.00
7888;BME280;3989;48.810;9.208;2022-08-19T01:41:28;98294.53;;;21.15;100.00
7888;BME280;3989;48.810;9.208;2022-08-19T01:43:54;98296.41;;;21.15;100.00
7888;BME280;3989;48.810;9.208;2022-08-19T01:46:21;98301.00;;;21.14;100.00
7888;BME280;3989;48.810;9.208;2022-08-19T01:48:48;98298.81;;;21.11;100.00
7888;BME280;3989;48.810;9.208;2022-08-19T01:51:15;98301.53;;;21.11;100.00
7888;BME280;3989;48.810;9.208;2022-08-19T01:53:42;98245.13;;;20.86;100.00
7888;BME280;3989;48.810;9.208;2022-08-19T01:56:08;98283.78;;;21.04;100.00
7888;BME280;3989;48.810;9.208;2022-08-19T01:58:40;98186.41;;;20.38;100.00
7888;BME280;3989;48.810;9.208;2022-08-19T02:01:08;98179.72;;;20.24;100.00
7888;BME280;3989;48.810;9.208;2022-08-19T02:03:34;98212.81;;;20.53;100.00
7888;BME280;3989;48.810;9.208;2022-08-19T02:06:02;98298.16;;;20.99;100.00
7888;BME280;3989;48.810;9.208;2022-08-19T02:08:31;98261.88;;;20.78;100.00
7888;BME280;3989;48.810;9.208;2022-08-19T02:10:58;98301.38;;;20.96;100.00
7888;BME280;3989;48.810;9.208;2022-08-19T02:13:26;98275.41;;;20.78;100.00
7888;BME280;3989;48.810;9.208;2022-08-19T02:15:54;98297.78;;;20.90;100.00
7888;BME280;3989;48.810;9.208;2022-08-19T02:18:21;98244.63;;;20.63;100.00
7888;BME280;3989;48.810;9.208;2022-08-19T02:20:48;98299.09;;;20.88;100.00
7888;BME280;3989;48.810;9.208;2022-08-19T02:23:15;98296.66;;;20.86;100.00
7888;BME280;3989;48.810;9.208;2022-08-19T02:25:46;98085.16;;;19.48;100.00
7888;BME280;3989;48.810;9.208;2022-08-19T02:28:15;98306.63;;;20.81;100.00
7888;BME280;3989;48.810;9.208;2022-08-19T02:30:47;98262.13;;;20.50;100.00
7888;BME280;3989;48.810;9.208;2022-08-19T02:33:20;98286.63;;;20.60;100.00
7888;BME280;3989;48.810;9.208;2022-08-19T02:35:53;98247.63;;;20.39;100.00
7888;BME280;3989;48.810;9.208;2022-08-19T02:38:25;98271.59;;;20.48;100.00
7888;BME280;3989;48.810;9.208;2022-08-19T02:41:04;98284.13;;;20.54;100.00
7888;BME280;3989;48.810;9.208;2022-08-19T02:43:45;98307.53;;;20.65;100.00
7888;BME280;3989;48.810;9.208;2022-08-19T02:46:14;98298.03;;;20.62;100.00
7888;BME280;3989;48.810;9.208;2022-08-19T02:48:44;98236.81;;;20.18;100.00
7888;BME280;3989;48.810;9.208;2022-08-19T02:51:16;98278.06;;;20.47;100.00
7888;BME280;3989;48.810;9.208;2022-08-19T02:53:43;98296.09;;;20.58;100.00
7888;BME280;3989;48.810;9.208;2022-08-19T02:56:10;98186.09;;;19.91;100.00
7888;BME280;3989;48.810;9.208;2022-08-19T02:58:37;98127.44;;;19.54;100.00
7888;BME280;3989;48.810;9.208;2022-08-19T03:01:04;98293.91;;;20.55;100.00
7888;BME280;3989;48.810;9.208;2022-08-19T03:03:32;98216.06;;;20.07;100.00
7888;BME280;3989;48.810;9.208;2022-08-19T03:06:10;98274.81;;;20.45;100.00
7888;BME280;3989;48.810;9.208;2022-08-19T03:08:39;98268.44;;;20.34;100.00
7888;BME280;3989;48.810;9.208;2022-08-19T03:11:06;98292.38;;;20.42;100.00
7888;BME280;3989;48.810;9.208;2022-08-19T03:13:32;98292.88;;;20.39;100.00
7888;BME280;3989;48.810;9.208;2022-08-19T03:15:59;98300.97;;;20.34;100.00
7888;BME280;3989;48.810;9.208;2022-08-19T03:18:25;98282.91;;;20.23;100.00
7888;BME280;3989;48.810;9.208;2022-08-19T03:20:52;98295.94;;;20.26;100.00
7888;BME280;3989;48.810;9.208;2022-08-19T03:23:22;98313.38;;;20.30;100.00
7888;BME280;3989;48.810;9.208;2022-08-19T03:25:51;98213.38;;;19.63;100.00
7888;BME280;3989;48.810;9.208;2022-08-19T03:28:19;98235.22;;;19.78;100.00
7888;BME280;3989;48.810;9.208;2022-08-19T03:30:56;98303.03;;;20.27;100.00
7888;BME280;3989;48.810;9.208;2022-08-19T03:33:28;98304.06;;;20.26;100.00
7888;BME280;3989;48.810;9.208;2022-08-19T03:36:04;98300.56;;;20.25;100.00
7888;BME280;3989;48.810;9.208;2022-08-19T03:38:34;98267.13;;;19.93;100.00
7888;BME280;3989;48.810;9.208;2022-08-19T03:41:05;98278.63;;;20.05;100.00
7888;BME280;3989;48.810;9.208;2022-08-19T03:43:34;98296.44;;;20.01;100.00
7888;BME280;3989;48.810;9.208;2022-08-19T03:46:03;98095.13;;;18.87;100.00
7888;BME280;3989;48.810;9.208;2022-08-19T03:48:31;98310.00;;;20.23;100.00
7888;BME280;3989;48.810;9.208;2022-08-19T03:50:58;98299.16;;;20.23;100.00
7888;BME280;3989;48.810;9.208;2022-08-19T03:53:25;98090.72;;;18.81;100.00
7888;BME280;3989;48.810;9.208;2022-08-19T03:55:54;98299.28;;;20.11;100.00
7888;BME280;3989;48.810;9.208;2022-08-19T03:58:22;98222.16;;;19.54;100.00
7888;BME280;3989;48.810;9.208;2022-08-19T04:00:49;98210.94;;;19.45;100.00
7888;BME280;3989;48.810;9.208;2022-08-19T04:03:16;98112.44;;;18.86;100.00
7888;BME280;3989;48.810;9.208;2022-08-19T04:05:45;98292.38;;;19.99;100.00
7888;BME280;3989;48.810;9.208;2022-08-19T04:08:12;98265.28;;;19.77;100.00
7888;BME280;3989;48.810;9.208;2022-08-19T04:10:40;98295.25;;;19.92;100.00
7888;BME280;3989;48.810;9.208;2022-08-19T04:13:08;98103.34;;;18.75;100.00
7888;BME280;3989;48.810;9.208;2022-08-19T04:15:39;98295.94;;;19.82;100.00
7888;BME280;3989;48.810;9.208;2022-08-19T04:18:07;98219.97;;;19.51;100.00
7888;BME280;3989;48.810;9.208;2022-08-19T04:20:39;98309.50;;;20.04;100.00
7888;BME280;3989;48.810;9.208;2022-08-19T04:23:06;98184.47;;;19.30;100.00
7888;BME280;3989;48.810;9.208;2022-08-19T04:25:36;98305.16;;;20.03;100.00
7888;BME280;3989;48.810;9.208;2022-08-19T04:28:03;98147.28;;;19.04;100.00
7888;BME280;3989;48.810;9.208;2022-08-19T04:30:37;98224.06;;;19.53;100.00
7888;BME280;3989;48.810;9.208;2022-08-19T04:33:04;98251.00;;;19.65;100.00
7888;BME280;3989;48.810;9.208;2022-08-19T04:35:35;98153.28;;;19.06;100.00
7888;BME280;3989;48.810;9.208;2022-08-19T04:38:01;98142.22;;;19.08;100.00
7888;BME280;3989;48.810;9.208;2022-08-19T04:40:28;98306.88;;;20.09;100.00
7888;BME280;3989;48.810;9.208;2022-08-19T04:43:12;98306.88;;;20.09;100.00
7888;BME280;3989;48.810;9.208;2022-08-19T04:45:42;98241.81;;;19.66;100.00
7888;BME280;3989;48.810;9.208;2022-08-19T04:48:09;98169.97;;;19.20;100.00
7888;BME280;3989;48.810;9.208;2022-08-19T04:50:36;98279.69;;;19.82;100.00
7888;BME280;3989;48.810;9.208;2022-08-19T04:53:02;98232.91;;;19.49;100.00
7888;BME280;3989;48.810;9.208;2022-08-19T04:55:30;98318.81;;;20.13;100.00
7888;BME280;3989;48.810;9.208;2022-08-19T04:57:56;98315.22;;;20.08;100.00
7888;BME280;3989;48.810;9.208;2022-08-19T05:00:23;98195.09;;;19.37;100.00
7888;BME280;3989;48.810;9.208;2022-08-19T05:02:52;98311.00;;;19.95;100.00
7888;BME280;3989;48.810;9.208;2022-08-19T05:05:19;98306.47;;;20.01;100.00
7888;BME280;3989;48.810;9.208;2022-08-19T05:07:46;98188.72;;;19.26;100.00
7888;BME280;3989;48.810;9.208;2022-08-19T05:10:12;98300.81;;;20.02;100.00
7888;BME280;3989;48.810;9.208;2022-08-19T05:12:39;98293.09;;;19.94;100.00
7888;BME280;3989;48.810;9.208;2022-08-19T05:15:07;98340.06;;;20.21;100.00
7888;BME280;3989;48.810;9.208;2022-08-19T05:17:34;98342.28;;;20.24;100.00
7888;BME280;3989;48.810;9.208;2022-08-19T05:20:03;98339.00;;;20.22;100.00
7888;BME280;3989;48.810;9.208;2022-08-19T05:22:48;98358.63;;;20.29;100.00
7888;BME280;3989;48.810;9.208;2022-08-19T05:25:19;98367.88;;;20.33;100.00
7888;BME280;3989;48.810;9.208;2022-08-19T05:27:46;98383.09;;;20.34;100.00
7888;BME280;3989;48.810;9.208;2022-08-19T05:30:14;98383.31;;;20.33;100.00
7888;BME280;3989;48.810;9.208;2022-08-19T05:32:42;98398.03;;;20.37;100.00
7888;BME280;3989;48.810;9.208;2022-08-19T05:35:10;98402.13;;;20.39;100.00
7888;BME280;3989;48.810;9.208;2022-08-19T05:37:37;98219.75;;;19.19;100.00
7888;BME280;3989;48.810;9.208;2022-08-19T05:40:06;98407.03;;;20.42;100.00
7888;BME280;3989;48.810;9.208;2022-08-19T05:42:32;98414.59;;;20.40;100.00
7888;BME280;3989;48.810;9.208;2022-08-19T05:45:00;98412.06;;;20.34;100.00
7888;BME280;3989;48.810;9.208;2022-08-19T05:47:26;98395.09;;;20.22;100.00
7888;BME280;3989;48.810;9.208;2022-08-19T05:49:53;98425.44;;;20.40;100.00
7888;BME280;3989;48.810;9.208;2022-08-19T05:52:21;98205.72;;;19.05;100.00
7888;BME280;3989;48.810;9.208;2022-08-19T05:54:48;98261.56;;;19.45;100.00
7888;BME280;3989;48.810;9.208;2022-08-19T05:57:16;98174.34;;;18.87;100.00
7888;BME280;3989;48.810;9.208;2022-08-19T05:59:43;98400.34;;;20.28;100.00
7888;BME280;3989;48.810;9.208;2022-08-19T06:02:16;98294.63;;;19.68;100.00
7888;BME280;3989;48.810;9.208;2022-08-19T06:04:43;98325.53;;;19.89;100.00
7888;BME280;3989;48.810;9.208;2022-08-19T06:07:10;98349.28;;;20.04;100.00
7888;BME280;3989;48.810;9.208;2022-08-19T06:09:38;98408.19;;;20.47;100.00
7888;BME280;3989;48.810;9.208;2022-08-19T06:12:05;98414.16;;;20.49;100.00
7888;BME280;3989;48.810;9.208;2022-08-19T06:14:34;98408.50;;;20.50;100.00
7888;BME280;3989;48.810;9.208;2022-08-19T06:17:01;98406.59;;;20.51;100.00
7888;BME280;3989;48.810;9.208;2022-08-19T06:19:28;98407.66;;;20.50;100.00
7888;BME280;3989;48.810;9.208;2022-08-19T06:21:57;98392.28;;;20.33;100.00
7888;BME280;3989;48.810;9.208;2022-08-19T06:24:26;98397.06;;;20.26;100.00
7888;BME280;3989;48.810;9.208;2022-08-19T06:26:56;98382.44;;;20.11;100.00
7888;BME280;3989;48.810;9.208;2022-08-19T06:29:24;98408.38;;;20.23;100.00
7888;BME280;3989;48.810;9.208;2022-08-19T06:31:56;98403.63;;;19.97;100.00
7888;BME280;3989;48.810;9.208;2022-08-19T06:34:23;98400.81;;;19.87;100.00
7888;BME280;3989;48.810;9.208;2022-08-19T06:36:51;98419.66;;;19.99;100.00
7888;BME280;3989;48.810;9.208;2022-08-19T06:39:20;98416.69;;;20.00;100.00
7888;BME280;3989;48.810;9.208;2022-08-19T06:41:50;98413.09;;;19.95;100.00
7888;BME280;3989;48.810;9.208;2022-08-19T06:44:19;98385.53;;;19.81;100.00
7888;BME280;3989;48.810;9.208;2022-08-19T06:46:46;98398.66;;;19.89;100.00
7888;BME280;3989;48.810;9.208;2022-08-19T06:49:14;98406.28;;;19.92;100.00
7888;BME280;3989;48.810;9.208;2022-08-19T06:51:41;98240.22;;;18.98;100.00
7888;BME280;3989;48.810;9.208;2022-08-19T06:54:09;98410.13;;;20.13;100.00
7888;BME280;3989;48.810;9.208;2022-08-19T06:56:36;98420.78;;;20.19;100.00
7888;BME280;3989;48.810;9.208;2022-08-19T06:59:05;98398.78;;;20.16;100.00
7888;BME280;3989;48.810;9.208;2022-08-19T07:01:35;98418.06;;;20.36;100.00
7888;BME280;3989;48.810;9.208;2022-08-19T07:04:04;98414.28;;;20.37;100.00
7888;BME280;3989;48.810;9.208;2022-08-19T07:06:31;98422.06;;;20.50;100.00
7888;BME280;3989;48.810;9.208;2022-08-19T07:08:58;98409.50;;;20.44;100.00
7888;BME280;3989;48.810;9.208;2022-08-19T07:11:25;98423.06;;;20.66;100.00
7888;BME280;3989;48.810;9.208;2022-08-19T07:13:52;98432.34;;;20.70;100.00
7888;BME280;3989;48.810;9.208;2022-08-19T07:16:20;98406.56;;;20.67;100.00
7888;BME280;3989;48.810;9.208;2022-08-19T07:18:48;98429.69;;;20.75;100.00
7888;BME280;3989;48.810;9.208;2022-08-19T07:21:18;98428.56;;;20.71;100.00
7888;BME280;3989;48.810;9.208;2022-08-19T07:23:45;98389.94;;;20.42;100.00
7888;BME280;3989;48.810;9.208;2022-08-19T07:26:14;98436.13;;;20.69;100.00
7888;BME280;3989;48.810;9.208;2022-08-19T07:28:42;98437.22;;;20.68;100.00
7888;BME280;3989;48.810;9.208;2022-08-19T07:31:10;98398.97;;;20.48;100.00
7888;BME280;3989;48.810;9.208;2022-08-19T07:33:37;98426.22;;;20.58;100.00
7888;BME280;3989;48.810;9.208;2022-08-19T07:36:07;98409.19;;;20.40;100.00
7888;BME280;3989;48.810;9.208;2022-08-19T07:38:35;98433.53;;;20.57;100.00
7888;BME280;3989;48.810;9.208;2022-08-19T07:41:02;98376.03;;;20.17;100.00
7888;BME280;3989;48.810;9.208;2022-08-19T07:43:28;98450.31;;;20.54;100.00
7888;BME280;3989;48.810;9.208;2022-08-19T07:45:55;98442.41;;;20.53;100.00
7888;BME280;3989;48.810;9.208;2022-08-19T07:48:22;98413.97;;;20.33;100.00
7888;BME280;3989;48.810;9.208;2022-08-19T07:50:51;98445.94;;;20.53;100.00
7888;BME280;3989;48.810;9.208;2022-08-19T07:53:19;98445.13;;;20.53;100.00
7888;BME280;3989;48.810;9.208;2022-08-19T07:55:46;98425.38;;;20.35;100.00
7888;BME280;3989;48.810;9.208;2022-08-19T07:58:14;98445.31;;;20.46;100.00
7888;BME280;3989;48.810;9.208;2022-08-19T08:00:43;98447.44;;;20.44;100.00
7888;BME280;3989;48.810;9.208;2022-08-19T08:03:12;98447.25;;;20.29;100.00
7888;BME280;3989;48.810;9.208;2022-08-19T08:05:39;98443.03;;;20.05;100.00
7888;BME280;3989;48.810;9.208;2022-08-19T08:08:26;98444.53;;;19.79;100.00
7888;BME280;3989;48.810;9.208;2022-08-19T08:11:10;98448.03;;;19.63;100.00
7888;BME280;3989;48.810;9.208;2022-08-19T08:13:38;98384.28;;;19.10;100.00
7888;BME280;3989;48.810;9.208;2022-08-19T08:16:07;98370.13;;;18.75;100.00
7888;BME280;3989;48.810;9.208;2022-08-19T08:18:33;98436.66;;;19.04;100.00
7888;BME280;3989;48.810;9.208;2022-08-19T08:21:06;98459.53;;;19.13;100.00
7888;BME280;3989;48.810;9.208;2022-08-19T08:23:35;98444.44;;;19.01;100.00
7888;BME280;3989;48.810;9.208;2022-08-19T08:26:01;98462.38;;;19.18;100.00
7888;BME280;3989;48.810;9.208;2022-08-19T08:28:30;98461.88;;;19.21;100.00
7888;BME280;3989;48.810;9.208;2022-08-19T08:30:58;98433.47;;;19.07;100.00
7888;BME280;3989;48.810;9.208;2022-08-19T08:33:27;98443.72;;;19.05;100.00
7888;BME280;3989;48.810;9.208;2022-08-19T08:35:54;98462.16;;;19.08;100.00
7888;BME280;3989;48.810;9.208;2022-08-19T08:38:20;98462.16;;;19.08;100.00
7888;BME280;3989;48.810;9.208;2022-08-19T08:40:50;98461.63;;;19.23;100.00
7888;BME280;3989;48.810;9.208;2022-08-19T08:43:24;98438.34;;;19.22;100.00
7888;BME280;3989;48.810;9.208;2022-08-19T08:45:59;98458.94;;;19.51;100.00
7888;BME280;3989;48.810;9.208;2022-08-19T08:48:36;98456.34;;;19.73;100.00
7888;BME280;3989;48.810;9.208;2022-08-19T08:51:05;98410.22;;;19.68;100.00
7888;BME280;3989;48.810;9.208;2022-08-19T08:53:34;98448.94;;;20.18;100.00
7888;BME280;3989;48.810;9.208;2022-08-19T08:56:04;98334.00;;;19.76;100.00
7888;BME280;3989;48.810;9.208;2022-08-19T08:58:49;98346.16;;;20.28;100.00
7888;BME280;3989;48.810;9.208;2022-08-19T09:01:17;98292.31;;;20.15;100.00
7888;BME280;3989;48.810;9.208;2022-08-19T09:03:44;98433.31;;;21.07;100.00
7888;BME280;3989;48.810;9.208;2022-08-19T09:06:14;98425.69;;;21.04;100.00
7888;BME280;3989;48.810;9.208;2022-08-19T09:08:49;98452.38;;;21.34;100.00
7888;BME280;3989;48.810;9.208;2022-08-19T09:11:55;98341.59;;;20.77;100.00
7888;BME280;3989;48.810;9.208;2022-08-19T09:14:36;98468.00;;;21.49;100.00
7888;BME280;3989;48.810;9.208;2022-08-19T09:17:07;98457.38;;;21.47;100.00
7888;BME280;3989;48.810;9.208;2022-08-19T09:19:35;98462.78;;;21.42;100.00
7888;BME280;3989;48.810;9.208;2022-08-19T09:22:13;98254.69;;;19.97;100.00
7888;BME280;3989;48.810;9.208;2022-08-19T09:24:40;98430.94;;;21.11;100.00
7888;BME280;3989;48.810;9.208;2022-08-19T09:27:08;98409.56;;;20.92;100.00
7888;BME280;3989;48.810;9.208;2022-08-19T09:29:34;98485.50;;;21.36;100.00
7888;BME280;3989;48.810;9.208;2022-08-19T09:32:01;98356.34;;;20.65;100.00
7888;BME280;3989;48.810;9.208;2022-08-19T09:34:28;98307.88;;;20.47;100.00
7888;BME280;3989;48.810;9.208;2022-08-19T09:36:55;98322.69;;;20.61;100.00
7888;BME280;3989;48.810;9.208;2022-08-19T09:39:24;98384.88;;;20.94;100.00
7888;BME280;3989;48.810;9.208;2022-08-19T09:41:50;98344.00;;;20.74;100.00
7888;BME280;3989;48.810;9.208;2022-08-19T09:44:19;98293.69;;;20.61;100.00
7888;BME280;3989;48.810;9.208;2022-08-19T09:46:46;98335.47;;;20.87;100.00
7888;BME280;3989;48.810;9.208;2022-08-19T09:49:13;98340.50;;;20.78;100.00
7888;BME280;3989;48.810;9.208;2022-08-19T09:51:40;98344.78;;;20.96;100.00
7888;BME280;3989;48.810;9.208;2022-08-19T09:54:06;98472.13;;;21.83;100.00
7888;BME280;3989;48.810;9.208;2022-08-19T09:56:33;98406.25;;;21.39;100.00
7888;BME280;3989;48.810;9.208;2022-08-19T09:59:01;98295.28;;;20.84;100.00
7888;BME280;3989;48.810;9.208;2022-08-19T10:01:31;98445.38;;;21.70;100.00
7888;BME280;3989;48.810;9.208;2022-08-19T10:03:59;98285.81;;;20.60;100.00
7888;BME280;3989;48.810;9.208;2022-08-19T10:06:28;98475.47;;;21.90;100.00
7888;BME280;3989;48.810;9.208;2022-08-19T10:08:58;98368.00;;;21.40;100.00
7888;BME280;3989;48.810;9.208;2022-08-19T10:11:25;98459.31;;;22.10;100.00
7888;BME280;3989;48.810;9.208;2022-08-19T10:13:52;98243.59;;;20.69;100.00
7888;BME280;3989;48.810;9.208;2022-08-19T10:16:20;98462.31;;;22.09;100.00
7888;BME280;3989;48.810;9.208;2022-08-19T10:18:49;98463.13;;;22.09;100.00
7888;BME280;3989;48.810;9.208;2022-08-19T10:21:21;98398.59;;;21.89;100.00
7888;BME280;3989;48.810;9.208;2022-08-19T10:23:51;98337.28;;;21.67;100.00
7888;BME280;3989;48.810;9.208;2022-08-19T10:26:21;98389.22;;;22.12;100.00
7888;BME280;3989;48.810;9.208;2022-08-19T10:28:48;98285.22;;;21.38;100.00
7888;BME280;3989;48.810;9.208;2022-08-19T10:31:18;98429.38;;;22.42;100.00
7888;BME280;3989;48.810;9.208;2022-08-19T10:33:46;98253.47;;;21.43;100.00
7888;BME280;3989;48.810;9.208;2022-08-19T10:36:17;98457.59;;;22.78;100.00
7888;BME280;3989;48.810;9.208;2022-08-19T10:38:44;98399.81;;;22.61;100.00
7888;BME280;3989;48.810;9.208;2022-08-19T10:41:14;98281.25;;;21.97;100.00
7888;BME280;3989;48.810;9.208;2022-08-19T10:43:41;98356.94;;;22.83;100.00
7888;BME280;3989;48.810;9.208;2022-08-19T10:46:13;98427.09;;;23.48;100.00
7888;BME280;3989;48.810;9.208;2022-08-19T10:48:40;98455.69;;;23.56;100.00
7888;BME280;3989;48.810;9.208;2022-08-19T10:51:07;98451.53;;;23.38;100.00
7888;BME280;3989;48.810;9.208;2022-08-19T10:53:53;98455.59;;;23.25;100.00
7888;BME280;3989;48.810;9.208;2022-08-19T10:56:20;98457.75;;;23.13;100.00
7888;BME280;3989;48.810;9.208;2022-08-19T10:59:05;98452.81;;;23.00;100.00
7888;BME280;3989;48.810;9.208;2022-08-19T11:01:33;98449.50;;;22.98;100.00
7888;BME280;3989;48.810;9.208;2022-08-19T11:04:01;98451.69;;;23.01;100.00
7888;BME280;3989;48.810;9.208;2022-08-19T11:06:29;98454.16;;;23.02;100.00
7888;BME280;3989;48.810;9.208;2022-08-19T11:08:58;98338.25;;;22.34;100.00
7888;BME280;3989;48.810;9.208;2022-08-19T11:11:26;98446.88;;;23.13;100.00
7888;BME280;3989;48.810;9.208;2022-08-19T11:13:53;98267.81;;;22.33;100.00
7888;BME280;3989;48.810;9.208;2022-08-19T11:16:23;98456.25;;;23.68;100.00
7888;BME280;3989;48.810;9.208;2022-08-19T11:18:52;98447.25;;;23.82;100.00
7888;BME280;3989;48.810;9.208;2022-08-19T11:21:21;98449.16;;;23.92;100.00
7888;BME280;3989;48.810;9.208;2022-08-19T11:23:51;98276.16;;;22.83;100.00
7888;BME280;3989;48.810;9.208;2022-08-19T11:26:20;98376.16;;;23.53;100.00
7888;BME280;3989;48.810;9.208;2022-08-19T11:28:48;98333.13;;;23.50;100.00
7888;BME280;3989;48.810;9.208;2022-08-19T11:31:18;98414.53;;;24.08;97.88
7888;BME280;3989;48.810;9.208;2022-08-19T11:33:45;98424.38;;;24.19;97.93
7888;BME280;3989;48.810;9.208;2022-08-19T11:36:16;98454.63;;;24.32;95.51
7888;BME280;3989;48.810;9.208;2022-08-19T11:38:42;98321.13;;;23.46;94.84
7888;BME280;3989;48.810;9.208;2022-08-19T11:41:09;98451.91;;;24.22;92.25
7888;BME280;3989;48.810;9.208;2022-08-19T11:43:37;98453.56;;;24.18;94.81
7888;BME280;3989;48.810;9.208;2022-08-19T11:46:05;98468.81;;;24.14;93.65
7888;BME280;3989;48.810;9.208;2022-08-19T11:48:33;98451.34;;;24.10;94.21
7888;BME280;3989;48.810;9.208;2022-08-19T11:51:03;98458.44;;;24.11;93.27
7888;BME280;3989;48.810;9.208;2022-08-19T11:53:32;98471.25;;;24.05;94.11
7888;BME280;3989;48.810;9.208;2022-08-19T11:55:59;98215.06;;;22.24;96.26
7888;BME280;3989;48.810;9.208;2022-08-19T11:58:26;98292.41;;;22.63;96.32
7888;BME280;3989;48.810;9.208;2022-08-19T12:00:53;98287.78;;;22.64;99.41
7888;BME280;3989;48.810;9.208;2022-08-19T12:03:20;98443.47;;;23.68;100.00
7888;BME280;3989;48.810;9.208;2022-08-19T12:05:47;98437.72;;;23.60;100.00
7888;BME280;3989;48.810;9.208;2022-08-19T12:08:15;98447.81;;;23.74;100.00
7888;BME280;3989;48.810;9.208;2022-08-19T12:10:42;98464.44;;;23.78;100.00
7888;BME280;3989;48.810;9.208;2022-08-19T12:13:11;98454.34;;;23.88;99.76
7888;BME280;3989;48.810;9.208;2022-08-19T12:15:40;98430.09;;;23.77;100.00
7888;BME280;3989;48.810;9.208;2022-08-19T12:18:08;98410.47;;;23.80;100.00
7888;BME280;3989;48.810;9.208;2022-08-19T12:20:36;98439.91;;;23.93;100.00
7888;BME280;3989;48.810;9.208;2022-08-19T12:23:03;98446.72;;;23.70;100.00
7888;BME280;3989;48.810;9.208;2022-08-19T12:25:30;98449.13;;;23.46;100.00
7888;BME280;3989;48.810;9.208;2022-08-19T12:27:58;98446.31;;;23.21;100.00
7888;BME280;3989;48.810;9.208;2022-08-19T12:30:25;98447.06;;;23.01;100.00
7888;BME280;3989;48.810;9.208;2022-08-19T12:32:51;98436.97;;;22.87;100.00
7888;BME280;3989;48.810;9.208;2022-08-19T12:35:20;98438.03;;;22.86;100.00
7888;BME280;3989;48.810;9.208;2022-08-19T12:37:48;98444.88;;;22.93;100.00
7888;BME280;3989;48.810;9.208;2022-08-19T12:40:15;98448.97;;;23.01;100.00
7888;BME280;3989;48.810;9.208;2022-08-19T12:42:43;98435.38;;;23.01;100.00
7888;BME280;3989;48.810;9.208;2022-08-19T12:45:11;98441.66;;;23.12;100.00
7888;BME280;3989;48.810;9.208;2022-08-19T12:47:38;98437.59;;;23.09;100.00
7888;BME280;3989;48.810;9.208;2022-08-19T12:50:06;98448.53;;;23.29;100.00
7888;BME280;3989;48.810;9.208;2022-08-19T12:52:36;98440.63;;;23.33;100.00
7888;BME280;3989;48.810;9.208;2022-08-19T12:55:05;98436.00;;;23.33;100.00
7888;BME280;3989;48.810;9.208;2022-08-19T12:57:32;98430.28;;;23.20;100.00
7888;BME280;3989;48.810;9.208;2022-08-19T13:00:06;98419.03;;;23.01;100.00
7888;BME280;3989;48.810;9.208;2022-08-19T13:02:35;98405.63;;;22.74;100.00
7888;BME280;3989;48.810;9.208;2022-08-19T13:05:03;98427.41;;;22.74;100.00
7888;BME280;3989;48.810;9.208;2022-08-19T13:07:31;98456.50;;;22.74;100.00
7888;BME280;3989;48.810;9.208;2022-08-19T13:09:59;98457.75;;;22.61;100.00
7888;BME280;3989;48.810;9.208;2022-08-19T13:12:26;98465.84;;;22.51;100.00
7888;BME280;3989;48.810;9.208;2022-08-19T13:14:52;98419.66;;;22.14;100.00
7888;BME280;3989;48.810;9.208;2022-08-19T13:17:19;98433.78;;;22.11;100.00
7888;BME280;3989;48.810;9.208;2022-08-19T13:19:46;98426.06;;;21.93;100.00
7888;BME280;3989;48.810;9.208;2022-08-19T13:22:13;98463.72;;;22.16;100.00
7888;BME280;3989;48.810;9.208;2022-08-19T13:24:40;98465.31;;;22.12;100.00